createdAt,value
2023-02-06T00:01:03.621Z,6.07
2023-02-06T00:06:03.940Z,3.55
2023-02-06T00:11:08.063Z,4.20
2023-02-06T00:16:24.673Z,3.13
2023-02-06T00:21:29.354Z,3.30
2023-02-06T00:26:38.301Z,3.28
2023-02-06T00:31:39.931Z,3.58
2023-02-06T00:36:48.582Z,3.30
2023-02-06T00:42:12.812Z,7.03
2023-02-06T00:47:12.611Z,3.92
2023-02-06T00:52:16.670Z,3.88
2023-02-06T00:57:21.107Z,4.53
2023-02-06T01:02:24.161Z,6.80
2023-02-06T01:07:23.598Z,3.90
2023-02-06T01:12:24.253Z,3.63
2023-02-06T01:17:25.763Z,4.13
2023-02-06T01:22:24.342Z,4.78
2023-02-06T01:27:22.484Z,5.03
2023-02-06T01:32:25.444Z,5.30
2023-02-06T01:37:24.319Z,6.38
2023-02-06T01:42:23.397Z,6.68
2023-02-06T01:47:22.640Z,7.78
2023-02-06T01:52:33.181Z,5.38
2023-02-06T01:57:33.198Z,6.43
2023-02-06T02:02:32.612Z,6.18
2023-02-06T02:07:41.698Z,7.20
2023-02-06T02:12:40.669Z,6.63
2023-02-06T02:17:56.132Z,5.30
2023-02-06T02:23:01.403Z,7.85
2023-02-06T02:28:25.121Z,9.48
2023-02-06T02:33:37.864Z,5.80
2023-02-06T02:38:48.185Z,4.90
2023-02-06T02:44:09.254Z,8.45
2023-02-06T02:49:17.199Z,7.50
2023-02-06T02:54:20.685Z,7.13
2023-02-06T02:59:25.277Z,6.95
2023-02-06T03:04:44.804Z,6.93
2023-02-06T03:09:47.427Z,6.72
2023-02-06T03:15:30.995Z,7.87
2023-02-06T03:20:31.563Z,8.40
2023-02-06T03:25:37.023Z,6.95
2023-02-06T03:30:37.202Z,6.53
2023-02-06T03:35:37.140Z,5.75
2023-02-06T03:40:36.636Z,6.07
2023-02-06T03:45:40.646Z,5.05
2023-02-06T03:50:40.953Z,5.35
2023-02-06T03:55:39.645Z,7.25
2023-02-06T04:00:38.732Z,5.88
2023-02-06T04:05:38.760Z,6.57
2023-02-06T04:10:39.117Z,8.80
2023-02-06T04:15:38.593Z,10.10
2023-02-06T04:20:41.466Z,6.78
2023-02-06T04:25:40.778Z,9.27
2023-02-06T04:30:39.135Z,8.13
2023-02-06T04:35:37.171Z,7.30
2023-02-06T04:40:35.622Z,6.40
2023-02-06T04:45:35.080Z,6.13
2023-02-06T04:50:34.509Z,7.45
2023-02-06T04:55:32.262Z,7.25
2023-02-06T05:00:33.718Z,6.82
2023-02-06T05:05:32.162Z,7.78
2023-02-06T05:10:42.132Z,6.38
2023-02-06T05:15:40.809Z,8.57
2023-02-06T05:20:38.514Z,7.63
2023-02-06T05:25:37.110Z,5.72
2023-02-06T05:30:37.222Z,9.52
2023-02-06T05:35:35.404Z,11.07
2023-02-06T05:40:33.987Z,8.48
2023-02-06T05:45:34.522Z,7.05
2023-02-06T05:50:33.592Z,6.28
2023-02-06T05:55:32.503Z,5.13
2023-02-06T06:00:35.530Z,6.60
2023-02-06T06:05:34.034Z,4.13
2023-02-06T06:10:32.506Z,6.30
2023-02-06T06:15:31.000Z,5.72
2023-02-06T06:20:29.274Z,5.95
2023-02-06T06:25:29.096Z,7.05
2023-02-06T06:30:27.794Z,5.82
2023-02-06T06:35:26.248Z,7.47
2023-02-06T06:40:24.591Z,15.35
2023-02-06T06:45:23.085Z,9.68
2023-02-06T06:50:20.703Z,10.07
2023-02-06T06:55:19.689Z,11.43
2023-02-06T07:00:17.913Z,8.63
2023-02-06T07:05:19.083Z,11.05
2023-02-06T07:10:16.605Z,8.93
2023-02-06T07:15:14.898Z,11.35
2023-02-06T07:20:12.454Z,7.95
2023-02-06T07:25:11.733Z,15.15
2023-02-06T07:30:11.350Z,15.93
2023-02-06T07:35:10.468Z,17.30
2023-02-06T07:40:21.429Z,16.98
2023-02-06T07:45:19.953Z,13.05
2023-02-06T07:50:18.491Z,13.25
2023-02-06T07:55:17.262Z,10.30
2023-02-06T08:00:15.761Z,10.05
2023-02-06T08:05:14.123Z,7.47
2023-02-06T08:10:12.264Z,5.43
2023-02-06T08:15:10.785Z,6.03
2023-02-06T08:20:10.682Z,5.82
2023-02-06T08:25:09.742Z,7.53
2023-02-06T08:30:18.666Z,8.80
2023-02-06T08:35:16.879Z,7.95
2023-02-06T08:40:15.264Z,7.13
2023-02-06T08:45:13.794Z,6.78
2023-02-06T08:50:23.391Z,7.25
2023-02-06T08:55:25.203Z,8.30
2023-02-06T09:00:24.168Z,6.43
2023-02-06T09:05:22.375Z,6.80
2023-02-06T09:10:27.545Z,5.88
2023-02-06T09:15:26.192Z,10.25
2023-02-06T09:20:26.947Z,9.50
2023-02-06T09:25:25.051Z,14.93
2023-02-06T09:30:22.589Z,7.88
2023-02-06T09:35:20.383Z,10.70
2023-02-06T09:40:21.791Z,9.57
2023-02-06T09:45:22.824Z,5.90
2023-02-06T09:50:31.246Z,7.85
2023-02-06T09:55:32.098Z,6.40
2023-02-06T10:00:59.810Z,7.10
2023-02-06T10:06:19.524Z,9.25
2023-02-06T10:11:27.236Z,7.25
2023-02-06T10:16:33.297Z,6.75
2023-02-06T10:21:42.872Z,8.93
2023-02-06T10:26:41.280Z,13.15
2023-02-06T10:31:50.830Z,9.25
2023-02-06T10:37:20.019Z,10.88
2023-02-06T10:42:29.488Z,8.93
2023-02-06T10:47:39.998Z,9.70
2023-02-06T10:52:39.398Z,10.48
2023-02-06T10:57:37.386Z,7.75
2023-02-06T11:02:55.337Z,8.32
2023-02-06T11:08:14.530Z,7.72
2023-02-06T11:13:33.900Z,7.25
2023-02-06T11:18:43.814Z,15.15
2023-02-06T11:23:42.324Z,9.02
2023-02-06T11:28:49.606Z,8.85
2023-02-06T11:33:54.825Z,8.00
2023-02-06T11:39:01.016Z,7.45
2023-02-06T11:44:06.681Z,6.18
2023-02-06T11:49:24.945Z,4.22
2023-02-06T11:54:28.604Z,6.43
2023-02-06T11:59:27.220Z,5.75
2023-02-06T12:04:40.841Z,4.45
2023-02-06T12:09:38.915Z,12.48
2023-02-06T12:14:40.638Z,3.78
2023-02-06T12:19:46.718Z,4.45
2023-02-06T12:24:49.493Z,4.18
2023-02-06T12:29:54.234Z,4.28
2023-02-06T12:34:54.547Z,4.05
2023-02-06T12:39:53.352Z,6.10
2023-02-06T12:44:58.288Z,4.57
2023-02-06T12:50:04.775Z,5.38
2023-02-06T12:55:36.386Z,7.13
2023-02-06T13:00:40.870Z,6.50
2023-02-06T13:05:47.284Z,8.68
2023-02-06T13:10:46.502Z,6.63
2023-02-06T13:15:55.501Z,7.28
2023-02-06T13:21:24.801Z,7.43
2023-02-06T13:26:44.338Z,6.97
2023-02-06T13:31:44.677Z,9.27
2023-02-06T13:36:51.298Z,7.25
2023-02-06T13:41:50.040Z,9.63
2023-02-06T13:47:14.866Z,8.23
2023-02-06T13:52:27.384Z,9.68
2023-02-06T13:57:34.964Z,12.02
2023-02-06T14:02:39.605Z,7.05
2023-02-06T14:07:50.594Z,11.00
2023-02-06T14:13:15.249Z,5.55
2023-02-06T14:18:28.699Z,7.43
2023-02-06T14:23:36.315Z,9.60
2023-02-06T14:28:49.793Z,10.35
2023-02-06T14:34:12.972Z,6.47
2023-02-06T14:39:33.114Z,7.10
2023-02-06T14:44:31.279Z,7.45
2023-02-06T14:49:36.900Z,8.63
2023-02-06T14:54:41.790Z,7.40
2023-02-06T14:59:51.685Z,6.43
2023-02-06T15:04:50.724Z,6.07
2023-02-06T15:10:12.519Z,5.93
2023-02-06T15:15:20.401Z,5.43
2023-02-06T15:20:20.909Z,9.27
2023-02-06T15:25:18.889Z,13.82
2023-02-06T15:30:22.436Z,22.08
2023-02-06T15:35:23.853Z,8.95
2023-02-06T15:40:26.575Z,15.95
2023-02-06T15:45:30.420Z,14.73
2023-02-06T15:50:31.440Z,13.90
2023-02-06T15:55:41.911Z,14.05
2023-02-06T16:00:39.942Z,12.60
2023-02-06T16:05:41.985Z,11.13
2023-02-06T16:10:40.484Z,11.88
2023-02-06T16:15:40.235Z,15.68
2023-02-06T16:20:41.180Z,19.40
2023-02-06T16:25:38.731Z,10.90
2023-02-06T16:30:37.568Z,13.63
2023-02-06T16:35:36.350Z,12.75
2023-02-06T16:40:36.047Z,11.93
2023-02-06T16:45:34.614Z,11.20
2023-02-06T16:50:36.821Z,13.52
2023-02-06T16:55:34.613Z,12.70
2023-02-06T17:00:33.023Z,14.32
2023-02-06T17:05:37.445Z,18.25
2023-02-06T17:10:35.131Z,14.30
2023-02-06T17:15:33.946Z,13.50
2023-02-06T17:20:37.518Z,12.40
2023-02-06T17:25:39.423Z,13.68
2023-02-06T17:30:40.617Z,14.63
2023-02-06T17:35:41.280Z,19.40
2023-02-06T17:40:41.029Z,14.82
2023-02-06T17:45:41.549Z,15.55
2023-02-06T17:50:43.781Z,16.38
2023-02-06T17:55:42.804Z,14.65
2023-02-06T18:00:44.619Z,17.08
2023-02-06T18:05:47.444Z,14.55
2023-02-06T18:10:46.288Z,14.77
2023-02-06T18:15:57.021Z,14.32
2023-02-06T18:20:55.775Z,14.73
2023-02-06T18:26:01.417Z,14.95
2023-02-06T18:31:02.667Z,12.10
2023-02-06T18:36:10.845Z,16.30
2023-02-06T18:41:33.515Z,18.25
2023-02-06T18:46:35.228Z,16.63
2023-02-06T18:51:44.089Z,13.98
2023-02-06T18:56:49.687Z,17.30
2023-02-06T19:01:50.770Z,15.10
2023-02-06T19:06:49.616Z,14.93
2023-02-06T19:11:50.573Z,14.27
2023-02-06T19:16:52.883Z,18.42
2023-02-06T19:21:58.155Z,19.10
2023-02-06T19:27:00.784Z,14.48
2023-02-06T19:32:03.142Z,14.13
2023-02-06T19:37:04.762Z,14.85
2023-02-06T19:42:07.612Z,16.20
2023-02-06T19:47:06.570Z,15.38
2023-02-06T19:52:04.603Z,13.75
2023-02-06T19:57:05.604Z,14.75
2023-02-06T20:02:03.601Z,14.70
2023-02-06T20:07:01.571Z,15.43
2023-02-06T20:12:01.009Z,13.38
2023-02-06T20:16:59.049Z,14.52
2023-02-06T20:21:58.918Z,14.52
2023-02-06T20:27:00.190Z,16.15
2023-02-06T20:31:59.886Z,13.50
2023-02-06T20:37:02.683Z,17.02
2023-02-06T20:42:02.348Z,13.85
2023-02-06T20:47:03.399Z,15.30
2023-02-06T20:52:03.467Z,17.08
2023-02-06T20:57:07.807Z,14.07
2023-02-06T21:02:12.422Z,17.58
2023-02-06T21:07:16.203Z,18.88
2023-02-06T21:12:17.999Z,12.35
2023-02-06T21:17:18.112Z,14.50
2023-02-06T21:22:19.321Z,13.65
2023-02-06T21:27:21.453Z,24.88
2023-02-06T21:32:21.126Z,22.80
2023-02-06T21:42:26.423Z,19.02
2023-02-06T21:47:24.363Z,15.00
2023-02-06T21:52:25.462Z,18.00
2023-02-06T21:57:32.389Z,18.55
2023-02-06T22:02:38.190Z,14.60
2023-02-06T22:07:39.692Z,16.00
2023-02-06T22:12:41.593Z,16.63
2023-02-06T22:17:50.656Z,18.40
2023-02-06T22:23:14.321Z,16.38
2023-02-06T22:28:24.582Z,16.27
2023-02-06T22:33:26.634Z,17.83
2023-02-06T22:38:31.170Z,14.75
2023-02-06T22:43:38.600Z,15.88
2023-02-06T22:48:36.687Z,15.40
2023-02-06T22:53:36.040Z,13.82
2023-02-06T22:58:35.116Z,15.52
2023-02-06T23:03:32.524Z,18.10
2023-02-06T23:08:33.580Z,15.13
2023-02-06T23:13:35.129Z,21.08
2023-02-06T23:18:36.318Z,15.68
2023-02-06T23:23:37.968Z,15.30
2023-02-06T23:28:36.891Z,17.02
2023-02-06T23:33:39.109Z,15.43
2023-02-06T23:38:38.555Z,14.90
2023-02-06T23:43:38.527Z,14.52
2023-02-06T23:48:38.034Z,17.25
2023-02-06T23:53:36.117Z,14.18
2023-02-06T23:58:34.853Z,15.18
